Time;durP1;ratioP1;P1;durP2;ratioP2;P2;SDS_P1;SDS_P2;PMS_P1;PMS_P2;Temp;Humidity;BMP_temperature;BMP_pressure;BME280_temperature;BME280_humidity;BME280_pressure;Samples;Min_cycle;Max_cycle;Signal;HPM_P1;HPM_P2
2021/10/02 00:45:22;;;;;;;;;;;7.50;93.80;;;;;;5034633;28;19976;-76
2021/10/02 00:47:48;;;;;;;;;;;7.50;94.10;;;;;;5015982;28;19909;-76
2021/10/02 00:50:14;;;;;;;;;;;7.50;93.30;;;;;;5034236;28;19909;-76
2021/10/02 00:52:41;;;;;;;;;;;7.50;93.70;;;;;;5015997;28;19909;-75
2021/10/02 00:55:07;;;;;;;;;;;7.40;93.40;;;;;;5033978;28;19917;-76
2021/10/02 00:57:32;;;;;;;;;;;7.40;94.30;;;;;;5033769;28;19909;-76
2021/10/02 00:59:58;;;;;;;;;;;7.40;93.00;;;;;;5033933;28;19909;-75
2021/10/02 01:02:24;;;;;;;;;;;7.40;94.20;;;;;;5033591;28;20004;-76
2021/10/02 01:05:09;;;;;;;;;;;7.40;94.40;;;;;;5017428;28;20397;-72
2021/10/02 01:07:52;;;;;;;;;;;7.40;94.30;;;;;;5033554;28;19952;-72
2021/10/02 01:10:45;;;;;;;;;;;7.30;94.70;;;;;;5033998;28;19968;-71
2021/10/02 01:13:16;;;;;;;;;;;7.30;95.70;;;;;;5003571;28;20010;-72
2021/10/02 01:16:00;;;;;;;;;;;7.30;95.60;;;;;;5015582;28;19917;-71
2021/10/02 01:18:32;;;;;;;;;;;7.30;96.30;;;;;;5033468;28;19909;-71
2021/10/02 01:21:16;;;;;;;;;;;7.30;96.30;;;;;;5015519;28;19916;-71
2021/10/02 01:23:50;;;;;;;;;;;7.20;96.70;;;;;;5033486;28;19909;-71
2021/10/02 01:26:16;;;;;;;;;;;7.20;96.00;;;;;;5033421;28;19909;-74
2021/10/02 01:28:42;;;;;;;;;;;7.20;96.20;;;;;;5033412;28;20035;-73
2021/10/02 01:31:22;;;;;;;;;;;7.20;96.30;;;;;;5033322;28;19915;-71
2021/10/02 01:34:06;;;;;;;;;;;7.20;96.00;;;;;;5033505;28;19916;-73
2021/10/02 01:47:23;;;;;;;;;;;7.10;95.40;;;;;;5034145;28;19967;-73
2021/10/02 01:49:51;;;;;;;;;;;7.10;95.90;;;;;;5019385;28;19909;-71
2021/10/02 01:52:20;;;;;;;;;;;7.10;96.60;;;;;;5036920;28;19931;-74
2021/10/02 01:54:47;;;;;;;;;;;7.10;97.40;;;;;;5037154;28;19924;-73
2021/10/02 01:57:13;;;;;;;;;;;7.10;98.10;;;;;;5036904;28;19954;-71
2021/10/02 01:59:40;;;;;;;;;;;7.00;96.90;;;;;;5037034;28;19917;-71
2021/10/02 02:02:06;;;;;;;;;;;7.00;96.50;;;;;;5036720;28;20278;-71
2021/10/02 02:04:33;;;;;;;;;;;7.00;97.60;;;;;;5020572;28;19909;-76
2021/10/02 02:06:59;;;;;;;;;;;7.00;96.90;;;;;;5018987;28;19911;-76
2021/10/02 02:09:26;;;;;;;;;;;7.00;96.90;;;;;;5036973;28;19913;-75
2021/10/02 02:11:52;;;;;;;;;;;7.00;97.40;;;;;;5036539;28;19987;-75
2021/10/02 02:14:18;;;;;;;;;;;7.00;96.90;;;;;;5036328;28;20108;-75
2021/10/02 02:16:45;;;;;;;;;;;7.00;97.80;;;;;;5036512;28;20359;-75
2021/10/02 02:19:12;;;;;;;;;;;7.00;98.50;;;;;;5036499;28;19917;-75
2021/10/02 02:21:37;;;;;;;;;;;7.00;96.00;;;;;;5036499;28;19905;-75
2021/10/02 02:24:03;;;;;;;;;;;7.00;96.30;;;;;;5036561;28;19913;-76
2021/10/02 02:26:29;;;;;;;;;;;7.00;96.70;;;;;;5036395;28;19951;-76
2021/10/02 02:28:55;;;;;;;;;;;7.00;97.80;;;;;;5036392;28;19958;-75
2021/10/02 02:31:21;;;;;;;;;;;7.10;97.30;;;;;;5018489;28;19912;-75
2021/10/02 02:33:47;;;;;;;;;;;7.00;95.60;;;;;;5036317;28;19934;-75
2021/10/02 02:36:12;;;;;;;;;;;7.00;96.30;;;;;;5036140;28;19936;-76
2021/10/02 02:38:38;;;;;;;;;;;7.00;94.20;;;;;;5018420;28;19917;-75
2021/10/02 02:41:03;;;;;;;;;;;7.10;96.20;;;;;;5036068;28;20282;-76
2021/10/02 02:43:32;;;;;;;;;;;7.10;97.40;;;;;;5018217;28;19920;-76
2021/10/02 02:46:03;;;;;;;;;;;7.10;95.40;;;;;;5035907;28;19906;-75
2021/10/02 02:48:32;;;;;;;;;;;7.20;96.90;;;;;;5018252;28;20003;-76
2021/10/02 02:51:03;;;;;;;;;;;7.20;96.70;;;;;;5035879;28;19983;-75
2021/10/02 02:53:38;;;;;;;;;;;7.30;97.50;;;;;;5035902;28;19935;-76
2021/10/02 02:56:07;;;;;;;;;;;7.30;95.20;;;;;;5035698;28;19913;-76
2021/10/02 02:58:35;;;;;;;;;;;7.30;95.70;;;;;;5035584;28;20295;-76
2021/10/02 03:01:01;;;;;;;;;;;7.30;96.10;;;;;;5035705;28;20008;-75
2021/10/02 03:03:32;;;;;;;;;;;7.30;92.50;;;;;;5017858;28;19913;-76
2021/10/02 03:05:59;;;;;;;;;;;7.30;93.70;;;;;;5037453;28;19982;-75
2021/10/02 03:08:28;;;;;;;;;;;7.40;94.60;;;;;;5035656;28;19936;-76
2021/10/02 03:10:59;;;;;;;;;;;7.40;96.10;;;;;;5017672;28;20366;-76
2021/10/02 03:13:25;;;;;;;;;;;7.50;95.50;;;;;;5017708;28;19913;-75
2021/10/02 03:15:51;;;;;;;;;;;7.50;94.10;;;;;;5035318;28;19913;-75
2021/10/02 03:18:18;;;;;;;;;;;7.60;92.00;;;;;;5017458;28;19984;-75
2021/10/02 03:20:48;;;;;;;;;;;7.60;94.30;;;;;;5017559;28;19911;-75
2021/10/02 03:23:14;;;;;;;;;;;7.60;92.90;;;;;;5035202;28;19905;-75
2021/10/02 03:25:40;;;;;;;;;;;7.60;92.70;;;;;;5035188;28;19927;-75
2021/10/02 03:28:06;;;;;;;;;;;7.60;93.10;;;;;;5035059;28;19909;-75
2021/10/02 03:30:31;;;;;;;;;;;7.60;92.50;;;;;;5017695;28;19911;-75
2021/10/02 03:32:58;;;;;;;;;;;7.50;91.30;;;;;;5035062;28;19905;-76
2021/10/02 03:35:24;;;;;;;;;;;7.50;91.30;;;;;;5035420;28;19956;-75
2021/10/02 03:37:49;;;;;;;;;;;7.40;92.90;;;;;;5035055;28;19928;-75
2021/10/02 03:40:16;;;;;;;;;;;7.40;91.20;;;;;;5034807;28;19916;-76
2021/10/02 03:42:43;;;;;;;;;;;7.40;91.90;;;;;;5034895;28;19905;-75
2021/10/02 03:45:08;;;;;;;;;;;7.30;92.30;;;;;;5035307;28;19936;-75
2021/10/02 03:47:34;;;;;;;;;;;7.40;92.20;;;;;;5034809;28;20283;-75
2021/10/02 03:50:00;;;;;;;;;;;7.40;91.70;;;;;;5035363;28;20003;-75
2021/10/02 03:52:25;;;;;;;;;;;7.40;90.80;;;;;;5035229;28;20063;-76
2021/10/02 03:54:51;;;;;;;;;;;7.40;89.90;;;;;;5017453;28;20346;-76
2021/10/02 03:57:16;;;;;;;;;;;7.40;89.50;;;;;;5034971;28;19905;-75
2021/10/02 03:59:42;;;;;;;;;;;7.50;90.90;;;;;;5034973;28;19913;-75
2021/10/02 04:02:07;;;;;;;;;;;7.50;91.10;;;;;;5017419;28;20279;-76
2021/10/02 04:04:33;;;;;;;;;;;7.50;90.10;;;;;;5047688;22;20264;-72
2021/10/02 04:06:58;;;;;;;;;;;7.50;90.70;;;;;;5013008;28;19920;-72
2021/10/02 04:09:26;;;;;;;;;;;7.50;90.90;;;;;;5012584;28;19913;-73
2021/10/02 04:11:52;;;;;;;;;;;7.50;90.20;;;;;;5011965;28;19956;-73
2021/10/02 04:14:17;;;;;;;;;;;7.60;90.30;;;;;;5012605;28;19906;-73
2021/10/02 04:16:43;;;;;;;;;;;7.60;90.50;;;;;;5013457;28;20264;-73
2021/10/02 04:19:08;;;;;;;;;;;7.60;89.00;;;;;;4996583;28;19905;-73
2021/10/02 04:21:34;;;;;;;;;;;7.70;89.70;;;;;;5014446;28;20335;-73
2021/10/02 04:24:00;;;;;;;;;;;7.70;88.50;;;;;;5014398;28;19905;-73
2021/10/02 04:26:25;;;;;;;;;;;7.70;88.30;;;;;;5014777;28;19956;-73
2021/10/02 04:28:51;;;;;;;;;;;7.70;88.60;;;;;;4995229;28;19910;-73
2021/10/02 04:31:17;;;;;;;;;;;7.80;88.00;;;;;;4995429;28;19916;-73
2021/10/02 04:33:43;;;;;;;;;;;7.90;88.50;;;;;;5013354;28;19921;-73
2021/10/02 04:36:08;;;;;;;;;;;8.00;87.10;;;;;;5013637;28;20015;-74
2021/10/02 04:38:34;;;;;;;;;;;8.20;86.10;;;;;;5013770;28;19956;-73
2021/10/02 04:41:00;;;;;;;;;;;8.20;86.00;;;;;;5014383;28;19916;-73
2021/10/02 04:43:26;;;;;;;;;;;8.30;85.70;;;;;;5014076;28;20383;-73
2021/10/02 04:45:51;;;;;;;;;;;8.40;85.20;;;;;;5014302;28;20323;-73
2021/10/02 04:48:17;;;;;;;;;;;8.50;84.70;;;;;;5013966;28;20311;-73
2021/10/02 04:50:42;;;;;;;;;;;8.50;84.00;;;;;;5014297;28;19913;-73
2021/10/02 04:53:08;;;;;;;;;;;8.60;84.70;;;;;;5012664;28;19956;-72
2021/10/02 04:55:33;;;;;;;;;;;8.70;84.00;;;;;;5013128;28;19925;-73
2021/10/02 04:57:59;;;;;;;;;;;8.80;83.60;;;;;;5013876;28;19909;-72
2021/10/02 05:00:24;;;;;;;;;;;8.90;84.00;;;;;;5014193;28;20004;-72
2021/10/02 05:02:50;;;;;;;;;;;9.10;83.30;;;;;;5013625;28;19909;-74
2021/10/02 05:05:15;;;;;;;;;;;9.20;82.40;;;;;;5025001;23;19928;-73
2021/10/02 05:07:41;;;;;;;;;;;9.30;82.80;;;;;;5013855;28;19906;-73
2021/10/02 05:10:07;;;;;;;;;;;9.40;83.10;;;;;;5014139;28;19944;-74
2021/10/02 05:12:33;;;;;;;;;;;9.50;82.20;;;;;;5013779;28;19905;-74
2021/10/02 05:14:58;;;;;;;;;;;9.60;81.60;;;;;;5013694;28;19970;-72
2021/10/02 05:17:24;;;;;;;;;;;9.70;81.50;;;;;;5013621;28;19956;-72
2021/10/02 05:19:51;;;;;;;;;;;9.70;80.90;;;;;;5013477;28;19917;-72
2021/10/02 05:22:17;;;;;;;;;;;9.80;81.10;;;;;;4996105;28;19979;-73
2021/10/02 05:24:43;;;;;;;;;;;9.90;80.80;;;;;;5017652;28;19968;-72
2021/10/02 05:27:09;;;;;;;;;;;10.10;80.40;;;;;;4999852;28;19905;-73
2021/10/02 05:29:36;;;;;;;;;;;10.20;81.30;;;;;;4999927;28;19914;-73
2021/10/02 05:32:02;;;;;;;;;;;10.60;82.80;;;;;;4999715;28;20282;-73
2021/10/02 05:34:28;;;;;;;;;;;11.60;81.70;;;;;;5017069;28;19963;-72
2021/10/02 05:36:53;;;;;;;;;;;12.60;79.60;;;;;;4999528;28;20310;-73
2021/10/02 05:39:19;;;;;;;;;;;13.70;78.60;;;;;;5017329;28;19912;-73
2021/10/02 05:41:44;;;;;;;;;;;14.60;74.30;;;;;;5017245;28;19912;-73
2021/10/02 05:44:10;;;;;;;;;;;15.30;71.80;;;;;;5017275;28;19959;-73
2021/10/02 05:46:36;;;;;;;;;;;16.10;69.80;;;;;;5017175;28;19948;-73
2021/10/02 05:49:01;;;;;;;;;;;16.70;67.00;;;;;;4999157;28;19948;-73
2021/10/02 05:51:27;;;;;;;;;;;17.40;64.70;;;;;;5017116;28;19920;-73
2021/10/02 05:53:52;;;;;;;;;;;18.00;62.20;;;;;;5017020;28;19905;-73
2021/10/02 05:56:18;;;;;;;;;;;18.70;63.30;;;;;;5017346;28;20382;-74
2021/10/02 05:58:43;;;;;;;;;;;19.30;62.80;;;;;;5016950;28;20394;-73
2021/10/02 06:01:09;;;;;;;;;;;19.60;60.50;;;;;;4999403;28;19913;-73
2021/10/02 06:03:34;;;;;;;;;;;19.50;55.90;;;;;;5016896;28;19905;-76
2021/10/02 06:06:00;;;;;;;;;;;19.40;56.60;;;;;;5010434;23;19922;-73
2021/10/02 06:08:29;;;;;;;;;;;19.20;54.60;;;;;;5016817;28;19905;-74
2021/10/02 06:10:55;;;;;;;;;;;18.50;53.20;;;;;;5017075;28;19917;-74
2021/10/02 06:13:21;;;;;;;;;;;17.60;52.80;;;;;;5016717;28;20004;-73
2021/10/02 06:15:47;;;;;;;;;;;16.90;54.20;;;;;;5016750;28;19925;-73
2021/10/02 06:18:12;;;;;;;;;;;16.90;55.70;;;;;;5016074;28;19905;-72
2021/10/02 06:20:38;;;;;;;;;;;17.30;55.90;;;;;;4998646;28;19913;-73
2021/10/02 06:23:04;;;;;;;;;;;17.40;55.00;;;;;;5016503;28;19905;-72
2021/10/02 06:25:30;;;;;;;;;;;17.30;53.50;;;;;;4997786;28;19920;-74
2021/10/02 06:27:56;;;;;;;;;;;17.10;53.20;;;;;;4998844;28;19905;-74
2021/10/02 06:30:22;;;;;;;;;;;16.70;53.60;;;;;;5016174;28;19928;-72
2021/10/02 06:32:48;;;;;;;;;;;16.50;53.10;;;;;;5016206;28;19906;-78
2021/10/02 06:35:14;;;;;;;;;;;16.30;52.70;;;;;;4998161;28;19927;-72
2021/10/02 06:37:39;;;;;;;;;;;16.20;53.40;;;;;;4997105;28;19920;-76
2021/10/02 06:40:06;;;;;;;;;;;16.20;54.20;;;;;;5014710;28;19949;-73
2021/10/02 06:42:31;;;;;;;;;;;16.40;54.50;;;;;;5014931;28;19951;-72
2021/10/02 06:44:57;;;;;;;;;;;16.60;54.60;;;;;;5015205;28;19913;-71
2021/10/02 06:47:23;;;;;;;;;;;16.70;55.00;;;;;;5016179;28;19984;-72
2021/10/02 06:49:49;;;;;;;;;;;16.70;56.20;;;;;;5016004;28;19917;-72
2021/10/02 06:52:14;;;;;;;;;;;16.90;57.10;;;;;;5015657;28;19911;-72
2021/10/02 06:54:40;;;;;;;;;;;17.20;56.20;;;;;;5015448;28;19978;-74
2021/10/02 06:57:07;;;;;;;;;;;17.30;56.00;;;;;;5015906;28;20422;-72
2021/10/02 06:59:33;;;;;;;;;;;17.10;56.30;;;;;;4998218;28;19913;-72
2021/10/02 07:01:59;;;;;;;;;;;17.00;56.90;;;;;;4998170;28;20249;-73
2021/10/02 07:04:25;;;;;;;;;;;17.00;57.20;;;;;;5015861;28;19919;-72
2021/10/02 07:06:50;;;;;;;;;;;17.10;57.30;;;;;;5040649;22;19921;-76
2021/10/02 07:09:16;;;;;;;;;;;17.10;57.10;;;;;;5016126;28;19997;-76
2021/10/02 07:11:42;;;;;;;;;;;17.00;57.40;;;;;;5015826;28;20304;-77
2021/10/02 07:14:07;;;;;;;;;;;16.80;57.90;;;;;;5015438;28;19995;-75
2021/10/02 07:16:33;;;;;;;;;;;16.70;59.20;;;;;;5015484;28;20001;-76
2021/10/02 07:18:58;;;;;;;;;;;16.50;59.90;;;;;;5015362;28;20355;-76
2021/10/02 07:21:24;;;;;;;;;;;16.60;60.30;;;;;;5015189;28;19909;-75
2021/10/02 07:23:49;;;;;;;;;;;17.00;60.20;;;;;;5015371;28;19909;-76
2021/10/02 07:26:15;;;;;;;;;;;17.50;60.70;;;;;;5014579;28;19910;-77
2021/10/02 07:28:40;;;;;;;;;;;18.10;60.60;;;;;;4996060;28;20326;-74
2021/10/02 07:31:06;;;;;;;;;;;18.90;60.40;;;;;;5015217;28;19917;-74
2021/10/02 07:33:31;;;;;;;;;;;19.10;58.80;;;;;;5014799;28;19909;-78
2021/10/02 07:35:57;;;;;;;;;;;19.20;58.70;;;;;;5014746;28;20011;-75
2021/10/02 07:38:23;;;;;;;;;;;19.50;58.60;;;;;;5014690;28;19910;-76
2021/10/02 07:40:49;;;;;;;;;;;19.50;57.50;;;;;;5014454;28;19909;-77
2021/10/02 07:43:16;;;;;;;;;;;19.40;57.70;;;;;;5014673;28;19916;-78
2021/10/02 07:45:43;;;;;;;;;;;19.60;57.10;;;;;;5012966;28;19919;-76
2021/10/02 07:48:09;;;;;;;;;;;20.00;56.80;;;;;;5014927;28;20375;-76
2021/10/02 07:50:34;;;;;;;;;;;20.40;55.30;;;;;;5015643;28;19909;-79
2021/10/02 07:53:00;;;;;;;;;;;20.50;53.40;;;;;;4997589;28;20005;-79
2021/10/02 07:55:26;;;;;;;;;;;20.70;53.10;;;;;;5015132;28;19917;-78
2021/10/02 07:57:52;;;;;;;;;;;21.00;52.70;;;;;;4995060;28;19913;-77
2021/10/02 08:00:19;;;;;;;;;;;21.00;52.00;;;;;;5014040;28;19960;-74
2021/10/02 08:02:45;;;;;;;;;;;21.10;51.30;;;;;;4997195;28;20348;-77
2021/10/02 08:05:11;;;;;;;;;;;21.20;51.10;;;;;;5026426;23;19912;-86
2021/10/02 08:07:41;;;;;;;;;;;21.40;50.70;;;;;;5014389;28;19917;-78
2021/10/02 08:10:07;;;;;;;;;;;21.60;50.60;;;;;;5014368;28;19905;-80
2021/10/02 08:12:33;;;;;;;;;;;21.90;49.80;;;;;;5014592;28;19909;-80
2021/10/02 08:14:58;;;;;;;;;;;22.10;47.70;;;;;;5014212;28;19921;-76
2021/10/02 08:17:26;;;;;;;;;;;21.90;46.30;;;;;;5014558;28;19916;-81
2021/10/02 08:19:55;;;;;;;;;;;21.40;45.50;;;;;;5014453;28;19945;-81
2021/10/02 08:22:23;;;;;;;;;;;21.10;46.40;;;;;;5014787;28;19910;-80
2021/10/02 08:24:50;;;;;;;;;;;20.70;46.20;;;;;;5014409;28;19909;-82
2021/10/02 08:27:16;;;;;;;;;;;20.40;46.90;;;;;;4996678;28;20004;-80
2021/10/02 08:29:41;;;;;;;;;;;20.10;48.30;;;;;;5013779;28;19952;-83
2021/10/02 08:32:08;;;;;;;;;;;20.10;49.10;;;;;;5014756;28;19909;-80
2021/10/02 08:34:33;;;;;;;;;;;20.10;49.60;;;;;;5014372;28;20360;-82
2021/10/02 08:36:59;;;;;;;;;;;19.90;48.70;;;;;;5014552;28;19956;-85
2021/10/02 08:39:24;;;;;;;;;;;19.90;48.80;;;;;;5014128;28;20355;-91
2021/10/02 08:41:50;;;;;;;;;;;19.60;47.60;;;;;;4996571;28;19918;-80
2021/10/02 08:44:17;;;;;;;;;;;19.30;48.10;;;;;;5014170;28;19913;-85
2021/10/02 08:46:46;;;;;;;;;;;19.20;49.10;;;;;;5014722;28;19981;-86
2021/10/02 08:49:26;;;;;;;;;;;19.30;49.60;;;;;;5013890;28;19913;-82
2021/10/02 08:51:52;;;;;;;;;;;19.60;49.30;;;;;;5013704;28;19914;-83
2021/10/02 08:54:18;;;;;;;;;;;19.70;48.60;;;;;;5013577;28;20370;-81
2021/10/02 08:56:45;;;;;;;;;;;19.80;49.10;;;;;;4995863;28;20355;-78
2021/10/02 08:59:13;;;;;;;;;;;20.30;48.60;;;;;;5013180;28;19909;-82
2021/10/02 09:01:39;;;;;;;;;;;20.50;47.30;;;;;;5013753;28;19909;-82
2021/10/02 09:04:04;;;;;;;;;;;21.10;47.20;;;;;;4994081;28;20386;-83
2021/10/02 09:06:32;;;;;;;;;;;21.60;45.40;;;;;;5006869;23;19921;-81
2021/10/02 09:08:58;;;;;;;;;;;21.70;44.80;;;;;;5013705;28;19913;-87
2021/10/02 09:11:24;;;;;;;;;;;22.50;44.40;;;;;;4995941;28;20322;-82
2021/10/02 09:13:49;;;;;;;;;;;22.90;42.60;;;;;;5012438;28;19906;-83
2021/10/02 09:16:15;;;;;;;;;;;23.10;42.40;;;;;;5014031;28;19922;-86
2021/10/02 09:18:40;;;;;;;;;;;23.40;42.60;;;;;;5014168;28;20395;-87
2021/10/02 09:21:06;;;;;;;;;;;23.60;42.60;;;;;;4995877;28;20235;-87
2021/10/02 09:23:39;;;;;;;;;;;24.10;42.30;;;;;;5012697;28;19940;-81
2021/10/02 09:26:05;;;;;;;;;;;24.70;41.20;;;;;;5013620;28;19917;-83
2021/10/02 09:28:41;;;;;;;;;;;25.10;40.60;;;;;;4995574;28;19913;-82
2021/10/02 09:31:07;;;;;;;;;;;25.50;39.50;;;;;;5013549;28;20387;-83
2021/10/02 09:33:33;;;;;;;;;;;25.80;39.30;;;;;;4993731;28;19963;-84
2021/10/02 09:35:59;;;;;;;;;;;26.00;39.00;;;;;;4994577;28;19927;-82
2021/10/02 09:38:25;;;;;;;;;;;26.30;39.20;;;;;;4996148;28;19913;-84
2021/10/02 09:40:51;;;;;;;;;;;26.30;38.80;;;;;;5013468;28;19953;-84
2021/10/02 09:43:17;;;;;;;;;;;26.50;39.10;;;;;;5013173;28;19937;-83
2021/10/02 09:45:43;;;;;;;;;;;26.40;37.60;;;;;;4995675;28;19964;-80
2021/10/02 09:48:10;;;;;;;;;;;26.30;37.10;;;;;;5018255;28;19992;-83
2021/10/02 09:50:40;;;;;;;;;;;26.30;37.20;;;;;;5017195;28;19914;-85
2021/10/02 09:53:06;;;;;;;;;;;26.70;36.20;;;;;;5013183;28;19905;-81
2021/10/02 09:55:36;;;;;;;;;;;26.70;36.50;;;;;;4994244;28;20339;-85
2021/10/02 09:58:04;;;;;;;;;;;26.60;34.20;;;;;;4993458;28;20399;-86
2021/10/02 10:00:31;;;;;;;;;;;26.50;34.20;;;;;;5013024;28;19949;-89
2021/10/02 10:02:57;;;;;;;;;;;26.40;34.90;;;;;;4995773;28;19905;-82
2021/10/02 10:07:50;;;;;;;;;;;27.00;34.60;;;;;;5011495;28;19921;-86
2021/10/02 10:10:16;;;;;;;;;;;27.00;34.10;;;;;;5013587;28;19921;-80
2021/10/02 10:12:42;;;;;;;;;;;26.90;34.20;;;;;;5016124;28;19909;-82
2021/10/02 10:15:25;;;;;;;;;;;26.90;34.60;;;;;;5014005;28;19920;-84
2021/10/02 10:17:50;;;;;;;;;;;27.00;34.80;;;;;;5014943;28;19909;-81
2021/10/02 10:20:16;;;;;;;;;;;27.60;34.90;;;;;;5016456;28;20004;-82
2021/10/02 10:22:42;;;;;;;;;;;27.90;34.10;;;;;;5015511;28;19964;-75
2021/10/02 10:25:08;;;;;;;;;;;28.20;33.70;;;;;;5015156;28;19905;-76
2021/10/02 10:27:44;;;;;;;;;;;28.20;33.90;;;;;;5016372;28;19956;-79
2021/10/02 10:30:18;;;;;;;;;;;27.80;33.20;;;;;;5016484;28;19951;-79
2021/10/02 10:33:02;;;;;;;;;;;27.70;33.20;;;;;;5014965;28;19910;-84
2021/10/02 10:35:30;;;;;;;;;;;27.70;33.10;;;;;;5013119;28;19917;-86
2021/10/02 10:37:56;;;;;;;;;;;27.90;33.30;;;;;;5015253;28;19913;-82
2021/10/02 10:40:21;;;;;;;;;;;28.10;33.30;;;;;;5016104;28;20683;-82
2021/10/02 10:42:47;;;;;;;;;;;28.30;33.20;;;;;;5015952;28;19937;-83
2021/10/02 10:45:13;;;;;;;;;;;28.40;33.00;;;;;;5015936;28;19910;-80
2021/10/02 10:47:39;;;;;;;;;;;28.50;33.00;;;;;;5014922;28;20009;-80
2021/10/02 10:50:05;;;;;;;;;;;28.70;32.60;;;;;;5015918;28;19996;-82
2021/10/02 10:52:37;;;;;;;;;;;28.50;32.50;;;;;;5015744;28;19916;-82
2021/10/02 10:55:10;;;;;;;;;;;28.50;32.50;;;;;;5014489;28;20382;-80
2021/10/02 10:57:38;;;;;;;;;;;28.40;32.40;;;;;;5014540;28;19913;-82
2021/10/02 11:00:06;;;;;;;;;;;28.50;33.00;;;;;;5014263;28;19912;-82
2021/10/02 11:02:40;;;;;;;;;;;29.30;33.20;;;;;;5015515;28;19909;-83
2021/10/02 11:05:05;;;;;;;;;;;30.30;33.80;;;;;;5014379;28;19955;-82
2021/10/02 11:07:50;;;;;;;;;;;30.80;32.30;;;;;;5017563;28;19922;-83
2021/10/02 11:10:45;;;;;;;;;;;30.90;32.30;;;;;;5015928;28;19913;-83
2021/10/02 11:13:20;;;;;;;;;;;30.80;31.30;;;;;;5005843;28;19906;-84
2021/10/02 11:15:46;;;;;;;;;;;30.40;31.70;;;;;;5014138;28;19921;-82
2021/10/02 11:18:31;;;;;;;;;;;30.50;32.20;;;;;;5014312;28;19965;-81
2021/10/02 11:21:01;;;;;;;;;;;30.60;31.90;;;;;;5013084;28;20004;-82
2021/10/02 11:23:35;;;;;;;;;;;30.90;32.70;;;;;;5014175;28;19909;-82
2021/10/02 11:26:30;;;;;;;;;;;31.00;32.00;;;;;;5014131;28;19913;-84
2021/10/02 11:29:01;;;;;;;;;;;30.90;31.60;;;;;;5006112;28;19906;-82
2021/10/02 11:31:28;;;;;;;;;;;30.40;32.10;;;;;;5015598;28;19917;-86
2021/10/02 11:33:55;;;;;;;;;;;30.20;32.00;;;;;;5013886;28;20004;-83
2021/10/02 11:36:41;;;;;;;;;;;30.30;32.50;;;;;;5013927;28;19926;-85
2021/10/02 11:39:12;;;;;;;;;;;30.50;31.90;;;;;;5015258;28;19905;-84
2021/10/02 11:41:44;;;;;;;;;;;30.60;32.20;;;;;;5014005;28;20252;-85
2021/10/02 11:44:10;;;;;;;;;;;30.50;31.90;;;;;;5014060;28;20028;-84
2021/10/02 11:46:36;;;;;;;;;;;29.90;31.50;;;;;;5015280;28;20434;-86
2021/10/02 11:49:12;;;;;;;;;;;29.50;31.80;;;;;;5015726;28;19913;-85
2021/10/02 11:51:38;;;;;;;;;;;29.50;32.70;;;;;;5016532;28;19914;-85
2021/10/02 11:54:14;;;;;;;;;;;29.50;31.70;;;;;;5016363;28;19941;-87
2021/10/02 11:56:41;;;;;;;;;;;29.30;31.70;;;;;;5014747;28;20012;-82
2021/10/02 11:59:07;;;;;;;;;;;29.20;31.50;;;;;;5014984;28;19913;-79
2021/10/02 12:01:36;;;;;;;;;;;29.20;31.80;;;;;;5013496;28;19913;-81
2021/10/02 12:04:03;;;;;;;;;;;29.10;32.00;;;;;;5013345;28;20545;-79
2021/10/02 12:06:30;;;;;;;;;;;29.20;32.00;;;;;;5026991;22;20272;-86
2021/10/02 12:08:57;;;;;;;;;;;29.10;31.80;;;;;;5016554;28;19905;-90
2021/10/02 12:11:23;;;;;;;;;;;28.90;31.80;;;;;;4997945;28;19913;-87
2021/10/02 12:13:50;;;;;;;;;;;29.20;32.30;;;;;;4997057;28;19960;-85
2021/10/02 12:16:17;;;;;;;;;;;29.40;31.70;;;;;;4997051;28;19925;-88
2021/10/02 12:18:43;;;;;;;;;;;29.40;31.20;;;;;;4997082;28;20379;-91
2021/10/02 12:21:23;;;;;;;;;;;29.20;31.30;;;;;;4997306;28;20008;-87
2021/10/02 12:24:07;;;;;;;;;;;29.00;31.50;;;;;;4997448;28;19956;-90
2021/10/02 12:26:45;;;;;;;;;;;28.40;30.90;;;;;;4997231;28;20360;-89
2021/10/02 12:29:12;;;;;;;;;;;28.30;31.50;;;;;;4997292;28;19910;-88
2021/10/02 12:31:41;;;;;;;;;;;28.30;31.50;;;;;;4996695;28;19921;-86
2021/10/02 12:34:11;;;;;;;;;;;28.30;31.30;;;;;;4996958;28;19906;-84
2021/10/02 12:36:44;;;;;;;;;;;27.90;31.50;;;;;;4996949;28;19921;-89
2021/10/02 12:39:10;;;;;;;;;;;27.80;30.90;;;;;;4998937;28;19905;-86
2021/10/02 12:41:39;;;;;;;;;;;27.40;31.30;;;;;;4998079;28;19913;-88
2021/10/02 12:44:05;;;;;;;;;;;26.70;31.50;;;;;;4996624;28;19949;-79
2021/10/02 12:46:31;;;;;;;;;;;26.20;32.10;;;;;;4996943;28;19948;-88
2021/10/02 12:48:56;;;;;;;;;;;26.10;32.40;;;;;;5014365;28;19967;-85
2021/10/02 12:51:22;;;;;;;;;;;26.20;32.80;;;;;;5014465;28;19971;-86
2021/10/02 12:53:47;;;;;;;;;;;26.50;32.40;;;;;;5014610;28;19905;-85
2021/10/02 12:56:14;;;;;;;;;;;26.30;32.60;;;;;;4997089;28;19981;-86
2021/10/02 12:58:39;;;;;;;;;;;26.30;32.70;;;;;;4996588;28;19912;-83
2021/10/02 13:01:05;;;;;;;;;;;26.40;32.50;;;;;;4998794;28;19914;-85
2021/10/02 13:03:36;;;;;;;;;;;26.80;32.30;;;;;;5004115;28;20256;-85
2021/10/02 13:06:03;;;;;;;;;;;26.90;32.10;;;;;;5023304;28;19901;-83
2021/10/02 13:08:28;;;;;;;;;;;26.60;32.20;;;;;;4996930;28;19913;-85
2021/10/02 13:10:54;;;;;;;;;;;26.50;31.80;;;;;;4996484;28;20350;-84
2021/10/02 13:13:20;;;;;;;;;;;26.20;31.80;;;;;;5013948;28;19909;-90
2021/10/02 13:15:49;;;;;;;;;;;25.80;32.20;;;;;;4996394;28;19917;-86
2021/10/02 13:18:16;;;;;;;;;;;25.70;32.30;;;;;;5014111;28;20299;-88
2021/10/02 13:20:42;;;;;;;;;;;25.80;32.10;;;;;;5014013;28;19909;-88
2021/10/02 13:23:07;;;;;;;;;;;25.60;32.30;;;;;;5014060;28;19909;-87
2021/10/02 13:25:36;;;;;;;;;;;25.40;32.60;;;;;;4996276;28;19909;-78
2021/10/02 13:28:02;;;;;;;;;;;25.30;32.80;;;;;;5014172;28;19960;-90
2021/10/02 13:30:33;;;;;;;;;;;25.40;33.10;;;;;;5013983;28;20275;-85
2021/10/02 13:33:00;;;;;;;;;;;25.80;32.40;;;;;;4996763;28;20044;-91
2021/10/02 13:35:27;;;;;;;;;;;25.80;32.50;;;;;;5013962;28;19963;-89
2021/10/02 13:37:53;;;;;;;;;;;25.90;32.30;;;;;;4996354;28;19955;-85
2021/10/02 13:40:30;;;;;;;;;;;25.90;32.50;;;;;;5013929;28;20295;-88
2021/10/02 13:42:56;;;;;;;;;;;26.00;32.50;;;;;;4996513;28;19909;-86
2021/10/02 13:45:26;;;;;;;;;;;26.10;32.40;;;;;;5002474;28;19918;-87
2021/10/02 13:47:56;;;;;;;;;;;25.90;32.50;;;;;;5021270;28;20359;-86
2021/10/02 13:50:22;;;;;;;;;;;25.60;32.50;;;;;;5008039;28;19918;-88
2021/10/02 13:52:47;;;;;;;;;;;25.40;32.80;;;;;;5000612;28;19916;-82
2021/10/02 13:55:13;;;;;;;;;;;25.40;33.00;;;;;;5003886;28;19913;-87
2021/10/02 13:57:38;;;;;;;;;;;25.70;32.80;;;;;;5021427;28;20364;-88
2021/10/02 14:00:04;;;;;;;;;;;25.80;32.80;;;;;;5001183;28;20004;-87
2021/10/02 14:02:30;;;;;;;;;;;25.80;32.80;;;;;;5034833;28;19944;-91
2021/10/02 14:04:55;;;;;;;;;;;25.90;32.30;;;;;;5037036;28;19981;-92
2021/10/02 14:07:21;;;;;;;;;;;25.70;32.20;;;;;;5009250;28;19967;-93
2021/10/02 14:09:46;;;;;;;;;;;25.30;32.40;;;;;;5018433;28;19905;-93
2021/10/02 14:12:13;;;;;;;;;;;24.50;33.50;;;;;;5001545;28;20334;-90
2021/10/02 14:14:41;;;;;;;;;;;24.10;34.10;;;;;;5000955;28;19905;-90
2021/10/02 14:17:07;;;;;;;;;;;23.90;34.30;;;;;;5002139;28;19984;-92
2021/10/02 14:19:33;;;;;;;;;;;23.80;34.90;;;;;;5017873;28;20000;-91
2021/10/02 14:21:58;;;;;;;;;;;24.00;34.50;;;;;;5018401;28;20336;-90
2021/10/02 14:24:24;;;;;;;;;;;24.20;34.30;;;;;;5018824;28;19909;-91
2021/10/02 14:26:49;;;;;;;;;;;24.10;34.40;;;;;;5018808;28;19966;-91
2021/10/02 14:29:15;;;;;;;;;;;24.10;34.30;;;;;;5018610;28;20043;-91
2021/10/02 14:31:41;;;;;;;;;;;24.10;34.40;;;;;;5037136;28;20776;-89
2021/10/02 14:34:07;;;;;;;;;;;24.40;33.60;;;;;;5023874;28;19905;-89
2021/10/02 14:36:37;;;;;;;;;;;24.40;33.70;;;;;;5032142;28;20423;-92
2021/10/02 14:39:04;;;;;;;;;;;24.10;33.80;;;;;;5000762;28;19909;-89
2021/10/02 14:41:30;;;;;;;;;;;23.60;34.20;;;;;;5019503;28;19913;-92
2021/10/02 14:43:55;;;;;;;;;;;23.10;34.80;;;;;;4999435;28;19905;-92
2021/10/02 14:46:24;;;;;;;;;;;22.30;35.20;;;;;;5016976;28;20113;-89
2021/10/02 14:48:50;;;;;;;;;;;21.20;36.70;;;;;;5017268;28;19906;-88
2021/10/02 14:51:16;;;;;;;;;;;20.10;37.40;;;;;;4999475;28;19914;-91
2021/10/02 14:53:43;;;;;;;;;;;19.10;39.00;;;;;;4999940;28;19912;-87
2021/10/02 14:56:08;;;;;;;;;;;18.20;40.60;;;;;;5016502;28;20451;-91
2021/10/02 14:58:36;;;;;;;;;;;17.40;42.50;;;;;;5018543;28;19949;-91
2021/10/02 15:01:01;;;;;;;;;;;16.80;42.40;;;;;;5000120;28;19917;-92
2021/10/02 15:03:28;;;;;;;;;;;16.20;43.80;;;;;;5017565;28;19911;-91
2021/10/02 15:05:53;;;;;;;;;;;15.80;44.40;;;;;;4999861;28;19971;-92
2021/10/02 15:08:19;;;;;;;;;;;15.50;44.70;;;;;;5000961;28;20366;-91
2021/10/02 15:10:46;;;;;;;;;;;15.20;45.80;;;;;;4999669;28;19924;-91
2021/10/02 15:13:11;;;;;;;;;;;14.90;46.80;;;;;;4999082;28;19905;-89
2021/10/02 15:15:37;;;;;;;;;;;14.70;48.00;;;;;;5015661;28;19909;-90
2021/10/02 15:18:03;;;;;;;;;;;14.50;46.80;;;;;;5040825;28;19928;-87
2021/10/02 15:20:29;;;;;;;;;;;14.30;46.50;;;;;;5024148;28;19913;-90